sensor_id;sensor_type;location;lat;lon;timestamp;P1;durP1;ratioP1;P2;durP2;ratioP2
2546;SDS011;1283;47.982;7.834;2023-07-08T00:00:11;9.60;;;3.17;;
2546;SDS011;1283;47.982;7.834;2023-07-08T00:02:41;16.45;;;3.65;;
2546;SDS011;1283;47.982;7.834;2023-07-08T00:05:09;11.77;;;3.88;;
2546;SDS011;1283;47.982;7.834;2023-07-08T00:07:36;7.47;;;3.00;;
2546;SDS011;1283;47.982;7.834;2023-07-08T00:10:08;9.63;;;3.45;;
2546;SDS011;1283;47.982;7.834;2023-07-08T00:12:37;12.95;;;4.57;;
2546;SDS011;1283;47.982;7.834;2023-07-08T00:15:04;9.60;;;3.60;;
2546;SDS011;1283;47.982;7.834;2023-07-08T00:17:31;9.25;;;3.97;;
2546;SDS011;1283;47.982;7.834;2023-07-08T00:19:58;6.75;;;2.75;;
2546;SDS011;1283;47.982;7.834;2023-07-08T00:22:26;6.90;;;3.50;;
2546;SDS011;1283;47.982;7.834;2023-07-08T00:24:53;12.07;;;3.05;;
2546;SDS011;1283;47.982;7.834;2023-07-08T00:27:19;8.45;;;3.63;;
2546;SDS011;1283;47.982;7.834;2023-07-08T00:29:46;10.82;;;3.90;;
2546;SDS011;1283;47.982;7.834;2023-07-08T00:32:13;9.15;;;3.40;;
2546;SDS011;1283;47.982;7.834;2023-07-08T00:34:40;10.30;;;3.92;;
2546;SDS011;1283;47.982;7.834;2023-07-08T00:37:08;10.30;;;3.38;;
2546;SDS011;1283;47.982;7.834;2023-07-08T00:39:37;9.60;;;3.15;;
2546;SDS011;1283;47.982;7.834;2023-07-08T00:42:06;8.85;;;3.75;;
2546;SDS011;1283;47.982;7.834;2023-07-08T00:44:40;10.40;;;3.40;;
2546;SDS011;1283;47.982;7.834;2023-07-08T00:47:08;9.95;;;3.97;;
2546;SDS011;1283;47.982;7.834;2023-07-08T00:49:36;9.98;;;3.30;;
2546;SDS011;1283;47.982;7.834;2023-07-08T00:52:21;8.65;;;2.90;;
2546;SDS011;1283;47.982;7.834;2023-07-08T00:54:51;20.60;;;4.35;;
2546;SDS011;1283;47.982;7.834;2023-07-08T00:57:18;7.45;;;2.90;;
2546;SDS011;1283;47.982;7.834;2023-07-08T00:59:46;9.43;;;3.53;;
2546;SDS011;1283;47.982;7.834;2023-07-08T01:02:14;13.18;;;3.13;;
2546;SDS011;1283;47.982;7.834;2023-07-08T01:04:44;8.70;;;4.63;;
2546;SDS011;1283;47.982;7.834;2023-07-08T01:07:15;13.48;;;3.67;;
2546;SDS011;1283;47.982;7.834;2023-07-08T01:09:46;8.27;;;3.70;;
2546;SDS011;1283;47.982;7.834;2023-07-08T01:12:16;7.30;;;3.50;;
2546;SDS011;1283;47.982;7.834;2023-07-08T01:14:45;16.45;;;3.55;;
2546;SDS011;1283;47.982;7.834;2023-07-08T01:17:12;8.32;;;3.28;;
2546;SDS011;1283;47.982;7.834;2023-07-08T01:19:40;8.43;;;3.28;;
2546;SDS011;1283;47.982;7.834;2023-07-08T01:22:08;13.02;;;3.58;;
2546;SDS011;1283;47.982;7.834;2023-07-08T01:24:36;13.50;;;3.75;;
2546;SDS011;1283;47.982;7.834;2023-07-08T01:27:05;9.25;;;3.10;;
2546;SDS011;1283;47.982;7.834;2023-07-08T01:29:33;9.25;;;3.35;;
2546;SDS011;1283;47.982;7.834;2023-07-08T01:32:00;10.98;;;3.50;;
2546;SDS011;1283;47.982;7.834;2023-07-08T01:34:27;5.72;;;3.50;;
2546;SDS011;1283;47.982;7.834;2023-07-08T01:36:54;9.77;;;3.75;;
2546;SDS011;1283;47.982;7.834;2023-07-08T01:39:24;17.17;;;4.28;;
2546;SDS011;1283;47.982;7.834;2023-07-08T01:41:51;10.48;;;4.05;;
2546;SDS011;1283;47.982;7.834;2023-07-08T01:44:20;8.30;;;3.13;;
2546;SDS011;1283;47.982;7.834;2023-07-08T01:46:48;11.52;;;3.65;;
2546;SDS011;1283;47.982;7.834;2023-07-08T01:49:14;12.50;;;3.60;;
2546;SDS011;1283;47.982;7.834;2023-07-08T01:51:41;10.00;;;3.83;;
2546;SDS011;1283;47.982;7.834;2023-07-08T01:54:07;15.32;;;4.55;;
2546;SDS011;1283;47.982;7.834;2023-07-08T01:56:35;9.85;;;3.25;;
2546;SDS011;1283;47.982;7.834;2023-07-08T01:59:01;8.90;;;3.53;;
2546;SDS011;1283;47.982;7.834;2023-07-08T02:01:28;9.48;;;3.55;;
2546;SDS011;1283;47.982;7.834;2023-07-08T02:03:54;12.48;;;3.85;;
2546;SDS011;1283;47.982;7.834;2023-07-08T02:06:21;7.03;;;3.60;;
2546;SDS011;1283;47.982;7.834;2023-07-08T02:08:47;6.80;;;3.50;;
2546;SDS011;1283;47.982;7.834;2023-07-08T02:11:15;10.30;;;3.42;;
2546;SDS011;1283;47.982;7.834;2023-07-08T02:13:42;8.95;;;3.33;;
2546;SDS011;1283;47.982;7.834;2023-07-08T02:16:09;13.43;;;3.67;;
2546;SDS011;1283;47.982;7.834;2023-07-08T02:18:36;15.57;;;3.05;;
2546;SDS011;1283;47.982;7.834;2023-07-08T02:21:02;8.23;;;3.28;;
2546;SDS011;1283;47.982;7.834;2023-07-08T02:23:29;12.43;;;3.78;;
2546;SDS011;1283;47.982;7.834;2023-07-08T02:25:55;8.93;;;3.65;;
2546;SDS011;1283;47.982;7.834;2023-07-08T02:28:22;12.35;;;3.35;;
2546;SDS011;1283;47.982;7.834;2023-07-08T02:30:50;11.00;;;3.38;;
2546;SDS011;1283;47.982;7.834;2023-07-08T02:33:16;14.15;;;3.65;;
2546;SDS011;1283;47.982;7.834;2023-07-08T02:35:43;18.73;;;3.70;;
2546;SDS011;1283;47.982;7.834;2023-07-08T02:38:09;8.38;;;3.35;;
2546;SDS011;1283;47.982;7.834;2023-07-08T02:40:36;9.38;;;3.25;;
2546;SDS011;1283;47.982;7.834;2023-07-08T02:43:02;14.70;;;4.18;;
2546;SDS011;1283;47.982;7.834;2023-07-08T02:45:29;12.80;;;4.13;;
2546;SDS011;1283;47.982;7.834;2023-07-08T02:47:56;10.15;;;3.70;;
2546;SDS011;1283;47.982;7.834;2023-07-08T02:50:23;14.73;;;4.32;;
2546;SDS011;1283;47.982;7.834;2023-07-08T02:52:49;11.93;;;3.90;;
2546;SDS011;1283;47.982;7.834;2023-07-08T02:55:16;13.27;;;4.45;;
2546;SDS011;1283;47.982;7.834;2023-07-08T02:57:42;11.23;;;4.70;;
2546;SDS011;1283;47.982;7.834;2023-07-08T03:00:09;11.63;;;4.75;;
2546;SDS011;1283;47.982;7.834;2023-07-08T03:02:38;10.52;;;4.68;;
2546;SDS011;1283;47.982;7.834;2023-07-08T03:05:06;9.90;;;4.47;;
2546;SDS011;1283;47.982;7.834;2023-07-08T03:07:33;12.05;;;3.90;;
2546;SDS011;1283;47.982;7.834;2023-07-08T03:10:00;10.48;;;4.13;;
2546;SDS011;1283;47.982;7.834;2023-07-08T03:12:26;11.65;;;4.05;;
2546;SDS011;1283;47.982;7.834;2023-07-08T03:14:53;13.35;;;4.45;;
2546;SDS011;1283;47.982;7.834;2023-07-08T03:17:19;15.52;;;4.53;;
2546;SDS011;1283;47.982;7.834;2023-07-08T03:19:46;13.32;;;4.35;;
2546;SDS011;1283;47.982;7.834;2023-07-08T03:22:13;11.25;;;4.57;;
2546;SDS011;1283;47.982;7.834;2023-07-08T03:24:40;14.00;;;4.93;;
2546;SDS011;1283;47.982;7.834;2023-07-08T03:27:11;14.57;;;4.47;;
2546;SDS011;1283;47.982;7.834;2023-07-08T03:29:38;13.27;;;5.00;;
2546;SDS011;1283;47.982;7.834;2023-07-08T03:32:05;17.05;;;4.78;;
2546;SDS011;1283;47.982;7.834;2023-07-08T03:34:32;12.75;;;4.78;;
2546;SDS011;1283;47.982;7.834;2023-07-08T03:36:58;11.65;;;4.32;;
2546;SDS011;1283;47.982;7.834;2023-07-08T03:39:26;11.73;;;3.95;;
2546;SDS011;1283;47.982;7.834;2023-07-08T03:41:53;13.02;;;3.10;;
2546;SDS011;1283;47.982;7.834;2023-07-08T03:44:19;17.08;;;3.45;;
2546;SDS011;1283;47.982;7.834;2023-07-08T03:46:46;5.85;;;3.00;;
2546;SDS011;1283;47.982;7.834;2023-07-08T03:49:14;8.73;;;3.35;;
2546;SDS011;1283;47.982;7.834;2023-07-08T03:51:41;8.98;;;3.03;;
2546;SDS011;1283;47.982;7.834;2023-07-08T03:54:14;7.95;;;3.55;;
2546;SDS011;1283;47.982;7.834;2023-07-08T03:56:42;11.15;;;3.35;;
2546;SDS011;1283;47.982;7.834;2023-07-08T03:59:09;5.53;;;2.80;;
2546;SDS011;1283;47.982;7.834;2023-07-08T04:01:36;7.00;;;2.75;;
2546;SDS011;1283;47.982;7.834;2023-07-08T04:04:06;6.40;;;3.22;;
2546;SDS011;1283;47.982;7.834;2023-07-08T04:06:34;8.90;;;2.58;;
2546;SDS011;1283;47.982;7.834;2023-07-08T04:09:00;10.30;;;2.97;;
2546;SDS011;1283;47.982;7.834;2023-07-08T04:11:27;19.50;;;2.80;;
2546;SDS011;1283;47.982;7.834;2023-07-08T04:13:55;7.22;;;2.95;;
2546;SDS011;1283;47.982;7.834;2023-07-08T04:16:22;8.88;;;2.92;;
2546;SDS011;1283;47.982;7.834;2023-07-08T04:18:50;10.45;;;3.10;;
2546;SDS011;1283;47.982;7.834;2023-07-08T04:21:18;12.82;;;3.10;;
2546;SDS011;1283;47.982;7.834;2023-07-08T04:23:45;11.73;;;3.42;;
2546;SDS011;1283;47.982;7.834;2023-07-08T04:26:11;9.68;;;3.30;;
2546;SDS011;1283;47.982;7.834;2023-07-08T04:28:37;6.90;;;2.90;;
2546;SDS011;1283;47.982;7.834;2023-07-08T04:31:05;12.07;;;3.80;;
2546;SDS011;1283;47.982;7.834;2023-07-08T04:33:32;7.40;;;3.20;;
2546;SDS011;1283;47.982;7.834;2023-07-08T04:35:58;5.25;;;2.58;;
2546;SDS011;1283;47.982;7.834;2023-07-08T04:38:25;7.28;;;2.50;;
2546;SDS011;1283;47.982;7.834;2023-07-08T04:40:53;5.95;;;2.20;;
2546;SDS011;1283;47.982;7.834;2023-07-08T04:43:20;4.63;;;2.20;;
2546;SDS011;1283;47.982;7.834;2023-07-08T04:45:48;5.68;;;2.00;;
2546;SDS011;1283;47.982;7.834;2023-07-08T04:48:18;4.60;;;2.30;;
2546;SDS011;1283;47.982;7.834;2023-07-08T04:50:46;7.82;;;2.00;;
2546;SDS011;1283;47.982;7.834;2023-07-08T04:53:14;5.50;;;1.63;;
2546;SDS011;1283;47.982;7.834;2023-07-08T04:55:41;4.13;;;1.50;;
2546;SDS011;1283;47.982;7.834;2023-07-08T04:58:08;5.88;;;2.00;;
2546;SDS011;1283;47.982;7.834;2023-07-08T05:00:35;5.40;;;2.13;;
2546;SDS011;1283;47.982;7.834;2023-07-08T05:03:02;3.67;;;2.20;;
2546;SDS011;1283;47.982;7.834;2023-07-08T05:05:29;7.30;;;2.13;;
2546;SDS011;1283;47.982;7.834;2023-07-08T05:07:56;7.03;;;2.10;;
2546;SDS011;1283;47.982;7.834;2023-07-08T05:10:23;6.30;;;2.42;;
2546;SDS011;1283;47.982;7.834;2023-07-08T05:12:49;5.78;;;2.33;;
2546;SDS011;1283;47.982;7.834;2023-07-08T05:15:16;5.05;;;2.35;;
2546;SDS011;1283;47.982;7.834;2023-07-08T05:17:42;6.45;;;2.63;;
2546;SDS011;1283;47.982;7.834;2023-07-08T05:20:10;8.52;;;2.75;;
2546;SDS011;1283;47.982;7.834;2023-07-08T05:22:39;10.25;;;2.83;;
2546;SDS011;1283;47.982;7.834;2023-07-08T05:25:07;5.05;;;2.10;;
2546;SDS011;1283;47.982;7.834;2023-07-08T05:27:34;10.18;;;2.10;;
2546;SDS011;1283;47.982;7.834;2023-07-08T05:32:28;5.03;;;2.08;;
2546;SDS011;1283;47.982;7.834;2023-07-08T05:34:55;6.18;;;2.13;;
2546;SDS011;1283;47.982;7.834;2023-07-08T05:37:21;6.00;;;1.98;;
2546;SDS011;1283;47.982;7.834;2023-07-08T05:39:51;4.47;;;2.33;;
2546;SDS011;1283;47.982;7.834;2023-07-08T05:42:19;9.50;;;2.15;;
2546;SDS011;1283;47.982;7.834;2023-07-08T05:44:45;3.88;;;2.15;;
2546;SDS011;1283;47.982;7.834;2023-07-08T05:47:12;3.42;;;1.60;;
2546;SDS011;1283;47.982;7.834;2023-07-08T05:49:39;3.45;;;2.08;;
2546;SDS011;1283;47.982;7.834;2023-07-08T05:52:05;4.68;;;2.70;;
2546;SDS011;1283;47.982;7.834;2023-07-08T05:54:35;5.05;;;1.98;;
2546;SDS011;1283;47.982;7.834;2023-07-08T05:57:04;5.53;;;1.77;;
2546;SDS011;1283;47.982;7.834;2023-07-08T05:59:31;4.65;;;1.92;;
2546;SDS011;1283;47.982;7.834;2023-07-08T06:01:57;6.35;;;2.00;;
2546;SDS011;1283;47.982;7.834;2023-07-08T06:04:24;4.75;;;1.90;;
2546;SDS011;1283;47.982;7.834;2023-07-08T06:06:50;4.15;;;1.83;;
2546;SDS011;1283;47.982;7.834;2023-07-08T06:09:17;2.97;;;1.65;;
2546;SDS011;1283;47.982;7.834;2023-07-08T06:11:43;5.53;;;1.65;;
2546;SDS011;1283;47.982;7.834;2023-07-08T06:14:11;2.30;;;1.23;;
2546;SDS011;1283;47.982;7.834;2023-07-08T06:16:37;9.10;;;1.48;;
2546;SDS011;1283;47.982;7.834;2023-07-08T06:19:04;6.10;;;1.65;;
2546;SDS011;1283;47.982;7.834;2023-07-08T06:21:30;5.78;;;1.80;;
2546;SDS011;1283;47.982;7.834;2023-07-08T06:23:57;2.38;;;1.08;;
2546;SDS011;1283;47.982;7.834;2023-07-08T06:26:23;6.32;;;1.70;;
2546;SDS011;1283;47.982;7.834;2023-07-08T06:28:50;7.10;;;1.77;;
2546;SDS011;1283;47.982;7.834;2023-07-08T06:31:17;6.35;;;1.80;;
2546;SDS011;1283;47.982;7.834;2023-07-08T06:33:44;4.43;;;2.08;;
2546;SDS011;1283;47.982;7.834;2023-07-08T06:36:10;4.65;;;1.60;;
2546;SDS011;1283;47.982;7.834;2023-07-08T06:38:37;2.35;;;1.40;;
2546;SDS011;1283;47.982;7.834;2023-07-08T06:41:03;3.72;;;1.70;;
2546;SDS011;1283;47.982;7.834;2023-07-08T06:43:30;3.08;;;1.60;;
2546;SDS011;1283;47.982;7.834;2023-07-08T06:45:56;2.70;;;1.58;;
2546;SDS011;1283;47.982;7.834;2023-07-08T06:48:24;5.22;;;2.28;;
2546;SDS011;1283;47.982;7.834;2023-07-08T06:50:51;6.05;;;1.70;;
2546;SDS011;1283;47.982;7.834;2023-07-08T06:53:17;5.03;;;2.22;;
2546;SDS011;1283;47.982;7.834;2023-07-08T06:55:44;5.28;;;2.42;;
2546;SDS011;1283;47.982;7.834;2023-07-08T06:58:10;4.32;;;1.90;;
2546;SDS011;1283;47.982;7.834;2023-07-08T07:00:37;3.50;;;1.98;;
2546;SDS011;1283;47.982;7.834;2023-07-08T07:03:04;9.52;;;2.08;;
2546;SDS011;1283;47.982;7.834;2023-07-08T07:05:31;3.30;;;1.60;;
2546;SDS011;1283;47.982;7.834;2023-07-08T07:07:58;9.32;;;2.35;;
2546;SDS011;1283;47.982;7.834;2023-07-08T07:10:24;4.55;;;1.80;;
2546;SDS011;1283;47.982;7.834;2023-07-08T07:12:51;8.65;;;1.58;;
2546;SDS011;1283;47.982;7.834;2023-07-08T07:15:17;8.48;;;2.10;;
2546;SDS011;1283;47.982;7.834;2023-07-08T07:17:43;4.32;;;1.65;;
2546;SDS011;1283;47.982;7.834;2023-07-08T07:20:10;3.28;;;2.03;;
2546;SDS011;1283;47.982;7.834;2023-07-08T07:22:39;6.72;;;1.73;;
2546;SDS011;1283;47.982;7.834;2023-07-08T07:25:05;7.07;;;1.55;;
2546;SDS011;1283;47.982;7.834;2023-07-08T07:27:32;4.47;;;1.38;;
2546;SDS011;1283;47.982;7.834;2023-07-08T07:29:59;6.60;;;1.98;;
2546;SDS011;1283;47.982;7.834;2023-07-08T07:32:25;4.50;;;1.70;;
2546;SDS011;1283;47.982;7.834;2023-07-08T07:34:54;4.75;;;1.60;;
2546;SDS011;1283;47.982;7.834;2023-07-08T07:37:22;6.35;;;1.95;;
2546;SDS011;1283;47.982;7.834;2023-07-08T07:39:50;4.97;;;1.70;;
2546;SDS011;1283;47.982;7.834;2023-07-08T07:42:17;5.50;;;1.83;;
2546;SDS011;1283;47.982;7.834;2023-07-08T07:44:44;2.88;;;2.00;;
2546;SDS011;1283;47.982;7.834;2023-07-08T07:47:11;3.08;;;1.45;;
2546;SDS011;1283;47.982;7.834;2023-07-08T07:49:38;6.07;;;1.33;;
2546;SDS011;1283;47.982;7.834;2023-07-08T07:52:05;8.95;;;1.38;;
2546;SDS011;1283;47.982;7.834;2023-07-08T07:54:32;4.15;;;1.98;;
2546;SDS011;1283;47.982;7.834;2023-07-08T07:57:00;3.17;;;1.33;;
2546;SDS011;1283;47.982;7.834;2023-07-08T07:59:26;2.90;;;1.52;;
2546;SDS011;1283;47.982;7.834;2023-07-08T08:01:53;5.00;;;1.63;;
2546;SDS011;1283;47.982;7.834;2023-07-08T08:04:19;3.33;;;1.42;;
2546;SDS011;1283;47.982;7.834;2023-07-08T08:06:46;6.50;;;1.73;;
2546;SDS011;1283;47.982;7.834;2023-07-08T08:09:13;2.50;;;1.55;;
2546;SDS011;1283;47.982;7.834;2023-07-08T08:11:39;3.70;;;1.40;;
2546;SDS011;1283;47.982;7.834;2023-07-08T08:14:07;3.38;;;1.25;;
2546;SDS011;1283;47.982;7.834;2023-07-08T08:16:33;3.40;;;1.52;;
2546;SDS011;1283;47.982;7.834;2023-07-08T08:19:00;3.95;;;1.65;;
2546;SDS011;1283;47.982;7.834;2023-07-08T08:21:26;5.10;;;1.67;;
2546;SDS011;1283;47.982;7.834;2023-07-08T08:23:53;4.28;;;2.00;;
2546;SDS011;1283;47.982;7.834;2023-07-08T08:26:19;2.53;;;1.65;;
2546;SDS011;1283;47.982;7.834;2023-07-08T08:28:46;4.47;;;1.83;;
2546;SDS011;1283;47.982;7.834;2023-07-08T08:31:13;7.82;;;1.83;;
2546;SDS011;1283;47.982;7.834;2023-07-08T08:33:40;6.63;;;1.75;;
2546;SDS011;1283;47.982;7.834;2023-07-08T08:36:06;5.75;;;1.60;;
2546;SDS011;1283;47.982;7.834;2023-07-08T08:38:33;7.10;;;1.92;;
2546;SDS011;1283;47.982;7.834;2023-07-08T08:41:02;5.75;;;1.90;;
2546;SDS011;1283;47.982;7.834;2023-07-08T08:43:30;6.72;;;1.92;;
2546;SDS011;1283;47.982;7.834;2023-07-08T08:46:01;7.07;;;1.73;;
2546;SDS011;1283;47.982;7.834;2023-07-08T08:48:33;4.50;;;1.70;;
2546;SDS011;1283;47.982;7.834;2023-07-08T08:51:03;3.20;;;2.20;;
2546;SDS011;1283;47.982;7.834;2023-07-08T08:53:33;3.67;;;1.70;;
2546;SDS011;1283;47.982;7.834;2023-07-08T08:56:00;6.28;;;1.90;;
2546;SDS011;1283;47.982;7.834;2023-07-08T08:58:33;4.43;;;1.92;;
2546;SDS011;1283;47.982;7.834;2023-07-08T09:01:04;17.40;;;2.10;;
2546;SDS011;1283;47.982;7.834;2023-07-08T09:03:39;4.13;;;2.00;;
2546;SDS011;1283;47.982;7.834;2023-07-08T09:06:12;4.32;;;1.95;;
2546;SDS011;1283;47.982;7.834;2023-07-08T09:08:40;4.47;;;1.75;;
2546;SDS011;1283;47.982;7.834;2023-07-08T09:11:10;6.07;;;1.90;;
2546;SDS011;1283;47.982;7.834;2023-07-08T09:13:41;4.70;;;1.70;;
2546;SDS011;1283;47.982;7.834;2023-07-08T09:16:09;5.90;;;2.10;;
2546;SDS011;1283;47.982;7.834;2023-07-08T09:18:45;5.55;;;1.45;;
2546;SDS011;1283;47.982;7.834;2023-07-08T09:21:19;6.80;;;1.70;;
2546;SDS011;1283;47.982;7.834;2023-07-08T09:23:48;8.52;;;2.72;;
2546;SDS011;1283;47.982;7.834;2023-07-08T09:26:17;2.08;;;1.25;;
2546;SDS011;1283;47.982;7.834;2023-07-08T09:28:46;2.38;;;1.45;;
2546;SDS011;1283;47.982;7.834;2023-07-08T09:31:18;4.72;;;1.70;;
2546;SDS011;1283;47.982;7.834;2023-07-08T09:33:49;4.47;;;1.30;;
2546;SDS011;1283;47.982;7.834;2023-07-08T09:36:17;6.03;;;2.00;;
2546;SDS011;1283;47.982;7.834;2023-07-08T09:38:47;2.53;;;1.40;;
2546;SDS011;1283;47.982;7.834;2023-07-08T09:41:17;7.35;;;1.63;;
2546;SDS011;1283;47.982;7.834;2023-07-08T09:44:02;5.95;;;1.77;;
2546;SDS011;1283;47.982;7.834;2023-07-08T09:46:35;4.95;;;1.50;;
2546;SDS011;1283;47.982;7.834;2023-07-08T09:49:12;2.33;;;1.48;;
2546;SDS011;1283;47.982;7.834;2023-07-08T09:54:16;3.38;;;1.70;;
2546;SDS011;1283;47.982;7.834;2023-07-08T09:56:43;2.65;;;1.20;;
2546;SDS011;1283;47.982;7.834;2023-07-08T09:59:14;2.28;;;1.30;;
2546;SDS011;1283;47.982;7.834;2023-07-08T10:01:41;7.28;;;1.60;;
2546;SDS011;1283;47.982;7.834;2023-07-08T10:04:10;4.85;;;1.63;;
2546;SDS011;1283;47.982;7.834;2023-07-08T10:06:37;3.25;;;1.50;;
2546;SDS011;1283;47.982;7.834;2023-07-08T10:09:04;2.75;;;1.63;;
2546;SDS011;1283;47.982;7.834;2023-07-08T10:11:35;6.97;;;1.75;;
2546;SDS011;1283;47.982;7.834;2023-07-08T10:14:07;7.80;;;1.83;;
2546;SDS011;1283;47.982;7.834;2023-07-08T10:16:36;4.70;;;1.80;;
2546;SDS011;1283;47.982;7.834;2023-07-08T10:19:04;6.97;;;2.10;;
2546;SDS011;1283;47.982;7.834;2023-07-08T10:21:39;8.32;;;1.85;;
2546;SDS011;1283;47.982;7.834;2023-07-08T10:24:22;9.15;;;2.30;;
2546;SDS011;1283;47.982;7.834;2023-07-08T10:30:20;2.83;;;1.40;;
2546;SDS011;1283;47.982;7.834;2023-07-08T10:32:54;3.88;;;1.88;;
2546;SDS011;1283;47.982;7.834;2023-07-08T10:35:28;4.60;;;1.88;;
2546;SDS011;1283;47.982;7.834;2023-07-08T10:38:01;3.90;;;1.70;;
2546;SDS011;1283;47.982;7.834;2023-07-08T10:40:41;6.45;;;2.20;;
2546;SDS011;1283;47.982;7.834;2023-07-08T10:43:18;5.33;;;2.20;;
2546;SDS011;1283;47.982;7.834;2023-07-08T10:45:56;3.53;;;1.60;;
2546;SDS011;1283;47.982;7.834;2023-07-08T10:48:34;3.20;;;1.85;;
2546;SDS011;1283;47.982;7.834;2023-07-08T10:51:14;3.55;;;1.90;;
2546;SDS011;1283;47.982;7.834;2023-07-08T10:53:53;6.78;;;2.25;;
2546;SDS011;1283;47.982;7.834;2023-07-08T10:56:31;5.88;;;2.13;;
2546;SDS011;1283;47.982;7.834;2023-07-08T10:59:16;3.75;;;2.05;;
2546;SDS011;1283;47.982;7.834;2023-07-08T11:02:02;5.78;;;2.55;;
2546;SDS011;1283;47.982;7.834;2023-07-08T11:04:45;7.43;;;3.35;;
2546;SDS011;1283;47.982;7.834;2023-07-08T11:07:22;4.90;;;2.35;;
2546;SDS011;1283;47.982;7.834;2023-07-08T11:09:56;4.13;;;1.83;;
2546;SDS011;1283;47.982;7.834;2023-07-08T11:12:26;5.25;;;2.30;;
2546;SDS011;1283;47.982;7.834;2023-07-08T11:14:56;4.90;;;2.30;;
2546;SDS011;1283;47.982;7.834;2023-07-08T11:17:27;4.07;;;2.00;;
2546;SDS011;1283;47.982;7.834;2023-07-08T11:19:57;3.33;;;1.80;;
2546;SDS011;1283;47.982;7.834;2023-07-08T11:22:29;4.38;;;1.90;;
2546;SDS011;1283;47.982;7.834;2023-07-08T11:24:57;4.10;;;2.28;;
2546;SDS011;1283;47.982;7.834;2023-07-08T11:27:26;5.35;;;1.88;;
2546;SDS011;1283;47.982;7.834;2023-07-08T11:29:54;5.50;;;1.88;;
2546;SDS011;1283;47.982;7.834;2023-07-08T11:32:22;4.57;;;2.00;;
2546;SDS011;1283;47.982;7.834;2023-07-08T11:34:51;4.90;;;1.77;;
2546;SDS011;1283;47.982;7.834;2023-07-08T11:37:19;6.57;;;2.08;;
2546;SDS011;1283;47.982;7.834;2023-07-08T11:39:53;10.85;;;1.95;;
2546;SDS011;1283;47.982;7.834;2023-07-08T11:42:21;3.28;;;1.55;;
2546;SDS011;1283;47.982;7.834;2023-07-08T11:44:50;3.65;;;1.60;;
2546;SDS011;1283;47.982;7.834;2023-07-08T11:47:22;4.32;;;1.90;;
2546;SDS011;1283;47.982;7.834;2023-07-08T11:49:51;4.45;;;1.70;;
2546;SDS011;1283;47.982;7.834;2023-07-08T11:52:19;3.58;;;1.50;;
2546;SDS011;1283;47.982;7.834;2023-07-08T11:54:48;3.53;;;1.67;;
2546;SDS011;1283;47.982;7.834;2023-07-08T11:57:24;3.95;;;1.55;;
2546;SDS011;1283;47.982;7.834;2023-07-08T12:00:13;3.60;;;1.75;;
2546;SDS011;1283;47.982;7.834;2023-07-08T12:02:48;5.88;;;1.60;;
2546;SDS011;1283;47.982;7.834;2023-07-08T12:05:17;2.75;;;1.75;;
2546;SDS011;1283;47.982;7.834;2023-07-08T12:07:55;4.70;;;1.60;;
2546;SDS011;1283;47.982;7.834;2023-07-08T12:10:26;4.45;;;1.55;;
2546;SDS011;1283;47.982;7.834;2023-07-08T12:12:54;2.97;;;1.30;;
2546;SDS011;1283;47.982;7.834;2023-07-08T12:15:22;3.50;;;1.67;;
2546;SDS011;1283;47.982;7.834;2023-07-08T12:17:50;4.07;;;1.58;;
2546;SDS011;1283;47.982;7.834;2023-07-08T12:20:18;4.13;;;1.50;;
2546;SDS011;1283;47.982;7.834;2023-07-08T12:22:47;2.97;;;1.38;;
2546;SDS011;1283;47.982;7.834;2023-07-08T12:25:14;7.47;;;1.80;;
2546;SDS011;1283;47.982;7.834;2023-07-08T12:27:44;3.20;;;1.63;;
2546;SDS011;1283;47.982;7.834;2023-07-08T12:30:12;3.10;;;1.70;;
2546;SDS011;1283;47.982;7.834;2023-07-08T12:32:39;5.93;;;1.83;;
2546;SDS011;1283;47.982;7.834;2023-07-08T12:35:08;3.38;;;1.50;;
2546;SDS011;1283;47.982;7.834;2023-07-08T12:37:45;5.00;;;1.77;;
2546;SDS011;1283;47.982;7.834;2023-07-08T12:40:12;3.72;;;1.60;;
2546;SDS011;1283;47.982;7.834;2023-07-08T12:42:39;2.65;;;1.55;;
2546;SDS011;1283;47.982;7.834;2023-07-08T12:45:11;6.88;;;2.22;;
2546;SDS011;1283;47.982;7.834;2023-07-08T12:47:39;6.13;;;2.35;;
2546;SDS011;1283;47.982;7.834;2023-07-08T12:50:07;7.18;;;1.90;;
2546;SDS011;1283;47.982;7.834;2023-07-08T12:52:34;3.92;;;1.77;;
2546;SDS011;1283;47.982;7.834;2023-07-08T12:55:01;3.55;;;1.67;;
2546;SDS011;1283;47.982;7.834;2023-07-08T12:57:27;4.38;;;1.90;;
2546;SDS011;1283;47.982;7.834;2023-07-08T12:59:54;8.27;;;2.33;;
2546;SDS011;1283;47.982;7.834;2023-07-08T13:02:22;3.22;;;1.73;;
2546;SDS011;1283;47.982;7.834;2023-07-08T13:04:53;4.80;;;1.75;;
2546;SDS011;1283;47.982;7.834;2023-07-08T13:07:25;4.50;;;1.70;;
2546;SDS011;1283;47.982;7.834;2023-07-08T13:09:57;4.50;;;1.73;;
2546;SDS011;1283;47.982;7.834;2023-07-08T13:12:23;5.78;;;1.75;;
2546;SDS011;1283;47.982;7.834;2023-07-08T13:14:50;3.95;;;1.55;;
2546;SDS011;1283;47.982;7.834;2023-07-08T13:17:17;3.97;;;1.73;;
2546;SDS011;1283;47.982;7.834;2023-07-08T13:19:45;7.72;;;2.08;;
2546;SDS011;1283;47.982;7.834;2023-07-08T13:22:14;6.70;;;1.80;;
2546;SDS011;1283;47.982;7.834;2023-07-08T13:24:42;6.53;;;2.10;;
2546;SDS011;1283;47.982;7.834;2023-07-08T13:27:12;5.93;;;2.33;;
2546;SDS011;1283;47.982;7.834;2023-07-08T13:29:40;5.30;;;2.10;;
2546;SDS011;1283;47.982;7.834;2023-07-08T13:32:09;5.70;;;2.13;;
2546;SDS011;1283;47.982;7.834;2023-07-08T13:34:36;11.55;;;2.05;;
2546;SDS011;1283;47.982;7.834;2023-07-08T13:37:04;6.88;;;2.05;;
2546;SDS011;1283;47.982;7.834;2023-07-08T13:39:36;6.20;;;2.40;;
2546;SDS011;1283;47.982;7.834;2023-07-08T13:42:03;4.53;;;1.73;;
2546;SDS011;1283;47.982;7.834;2023-07-08T13:44:32;3.28;;;1.67;;
2546;SDS011;1283;47.982;7.834;2023-07-08T13:46:59;4.72;;;2.17;;
2546;SDS011;1283;47.982;7.834;2023-07-08T13:49:27;7.35;;;2.30;;
2546;SDS011;1283;47.982;7.834;2023-07-08T13:52:05;4.97;;;2.28;;
2546;SDS011;1283;47.982;7.834;2023-07-08T13:54:33;4.60;;;1.95;;
2546;SDS011;1283;47.982;7.834;2023-07-08T13:57:03;4.70;;;2.15;;
2546;SDS011;1283;47.982;7.834;2023-07-08T13:59:29;5.65;;;2.17;;
2546;SDS011;1283;47.982;7.834;2023-07-08T14:01:56;7.13;;;2.30;;
2546;SDS011;1283;47.982;7.834;2023-07-08T14:04:25;4.80;;;2.67;;
2546;SDS011;1283;47.982;7.834;2023-07-08T14:06:54;5.13;;;2.40;;
2546;SDS011;1283;47.982;7.834;2023-07-08T14:09:22;8.30;;;2.30;;
2546;SDS011;1283;47.982;7.834;2023-07-08T14:11:50;11.38;;;2.53;;
2546;SDS011;1283;47.982;7.834;2023-07-08T14:14:17;7.13;;;2.58;;
2546;SDS011;1283;47.982;7.834;2023-07-08T14:16:44;7.45;;;2.38;;
2546;SDS011;1283;47.982;7.834;2023-07-08T14:19:14;8.63;;;2.55;;
2546;SDS011;1283;47.982;7.834;2023-07-08T14:21:43;7.72;;;2.30;;
2546;SDS011;1283;47.982;7.834;2023-07-08T14:24:10;7.82;;;3.00;;
2546;SDS011;1283;47.982;7.834;2023-07-08T14:26:40;7.07;;;2.65;;
2546;SDS011;1283;47.982;7.834;2023-07-08T14:29:08;8.75;;;2.78;;
2546;SDS011;1283;47.982;7.834;2023-07-08T14:31:34;7.75;;;2.58;;
2546;SDS011;1283;47.982;7.834;2023-07-08T14:34:02;7.13;;;2.70;;
2546;SDS011;1283;47.982;7.834;2023-07-08T14:36:30;8.07;;;2.95;;
2546;SDS011;1283;47.982;7.834;2023-07-08T14:38:57;6.55;;;2.90;;
2546;SDS011;1283;47.982;7.834;2023-07-08T14:41:23;6.75;;;2.80;;
2546;SDS011;1283;47.982;7.834;2023-07-08T14:43:51;8.10;;;3.15;;
2546;SDS011;1283;47.982;7.834;2023-07-08T14:46:18;6.78;;;2.80;;
2546;SDS011;1283;47.982;7.834;2023-07-08T14:48:44;8.52;;;2.88;;
2546;SDS011;1283;47.982;7.834;2023-07-08T14:51:11;5.75;;;2.70;;
2546;SDS011;1283;47.982;7.834;2023-07-08T14:53:37;6.10;;;2.55;;
2546;SDS011;1283;47.982;7.834;2023-07-08T14:56:05;6.68;;;2.55;;
2546;SDS011;1283;47.982;7.834;2023-07-08T14:58:34;2.92;;;1.88;;
2546;SDS011;1283;47.982;7.834;2023-07-08T15:01:07;5.05;;;2.65;;
2546;SDS011;1283;47.982;7.834;2023-07-08T15:03:35;9.65;;;2.90;;
2546;SDS011;1283;47.982;7.834;2023-07-08T15:06:02;6.72;;;2.58;;
2546;SDS011;1283;47.982;7.834;2023-07-08T15:08:29;8.05;;;2.83;;
2546;SDS011;1283;47.982;7.834;2023-07-08T15:10:59;5.07;;;2.60;;
2546;SDS011;1283;47.982;7.834;2023-07-08T15:13:26;4.32;;;2.20;;
2546;SDS011;1283;47.982;7.834;2023-07-08T15:15:55;6.65;;;2.67;;
2546;SDS011;1283;47.982;7.834;2023-07-08T15:18:23;7.50;;;2.80;;
2546;SDS011;1283;47.982;7.834;2023-07-08T15:20:50;5.55;;;2.85;;
2546;SDS011;1283;47.982;7.834;2023-07-08T15:23:17;7.60;;;2.92;;
2546;SDS011;1283;47.982;7.834;2023-07-08T15:25:44;5.53;;;2.75;;
2546;SDS011;1283;47.982;7.834;2023-07-08T15:28:14;6.88;;;2.60;;